Time;durP1;ratioP1;P1;durP2;ratioP2;P2;SDS_P1;SDS_P2;PMS_P1;PMS_P2;Temp;Humidity;BMP_temperature;BMP_pressure;BME280_temperature;BME280_humidity;BME280_pressure;Samples;Min_cycle;Max_cycle;Signal;HPM_P1;HPM_P2
2021/05/20 00:00:24;;;;;;;9.70;7.33;;;12.60;99.90;;;;;;5033690;28;20798;-68
2021/05/20 00:02:51;;;;;;;7.60;6.77;;;12.60;99.90;;;;;;5015844;28;20589;-67
2021/05/20 00:05:17;;;;;;;8.20;6.70;;;12.70;99.90;;;;;;5034002;28;20411;-68
2021/05/20 00:07:44;;;;;;;7.20;6.50;;;12.70;99.90;;;;;;5034484;28;20439;-68
2021/05/20 00:10:12;;;;;;;9.00;6.50;;;12.70;99.90;;;;;;5027771;28;20478;-69
2021/05/20 00:12:37;;;;;;;8.57;7.07;;;12.70;99.90;;;;;;5032845;28;20545;-69
2021/05/20 00:15:05;;;;;;;8.83;7.43;;;12.70;99.90;;;;;;5033853;28;20503;-69
2021/05/20 00:17:31;;;;;;;9.50;8.10;;;12.60;99.90;;;;;;5032808;28;20194;-68
2021/05/20 00:19:56;;;;;;;8.20;6.80;;;12.60;99.90;;;;;;5032508;28;20994;-68
2021/05/20 00:22:22;;;;;;;8.93;7.10;;;12.60;99.90;;;;;;5032647;28;20210;-67
2021/05/20 00:24:47;;;;;;;9.37;7.17;;;12.60;99.90;;;;;;5033812;28;20167;-69
2021/05/20 00:27:14;;;;;;;9.00;7.70;;;12.70;99.90;;;;;;5034065;28;20276;-69
2021/05/20 00:29:39;;;;;;;8.83;7.77;;;12.70;99.90;;;;;;5033698;28;20224;-68
2021/05/20 00:32:05;;;;;;;8.47;6.97;;;12.70;99.90;;;;;;5034039;28;20435;-67
2021/05/20 00:34:31;;;;;;;6.90;6.20;;;12.80;99.90;;;;;;5033590;28;20179;-70
2021/05/20 00:36:56;;;;;;;8.50;7.10;;;12.90;99.90;;;;;;5032408;28;20443;-69
2021/05/20 00:39:22;;;;;;;8.47;7.17;;;12.90;99.90;;;;;;5033571;28;20181;-68
2021/05/20 00:41:47;;;;;;;7.50;6.40;;;12.90;99.90;;;;;;5033731;28;20301;-69
2021/05/20 00:44:13;;;;;;;8.30;7.50;;;12.80;99.90;;;;;;5032247;28;20185;-69
2021/05/20 00:46:39;;;;;;;7.43;6.67;;;12.80;99.90;;;;;;5032320;28;20195;-68
2021/05/20 00:49:09;;;;;;;6.93;6.10;;;12.80;99.90;;;;;;5033581;28;20188;-70
2021/05/20 00:51:37;;;;;;;8.10;6.70;;;12.80;99.90;;;;;;5033828;28;20221;-67
2021/05/20 00:54:02;;;;;;;8.90;7.40;;;12.80;99.90;;;;;;5032186;28;20925;-69
2021/05/20 00:56:31;;;;;;;7.83;7.03;;;12.80;99.90;;;;;;5033781;28;20444;-68
2021/05/20 00:58:57;;;;;;;8.73;7.27;;;12.80;99.90;;;;;;5032114;28;20415;-67
2021/05/20 01:01:23;;;;;;;7.17;6.30;;;12.80;99.90;;;;;;5033421;28;20521;-69
2021/05/20 01:03:49;;;;;;;7.97;6.70;;;12.80;99.90;;;;;;5033433;28;20670;-67
2021/05/20 01:06:15;;;;;;;8.70;7.30;;;12.80;99.90;;;;;;5033469;28;20408;-67
2021/05/20 01:08:40;;;;;;;7.47;6.63;;;12.70;99.90;;;;;;5031994;28;20234;-67
2021/05/20 01:11:06;;;;;;;9.53;7.20;;;12.70;99.90;;;;;;5033523;28;20416;-68
2021/05/20 01:13:32;;;;;;;8.40;7.60;;;12.80;99.90;;;;;;5033220;28;20199;-69
2021/05/20 01:15:57;;;;;;;8.67;7.77;;;12.80;99.90;;;;;;5035735;28;20223;-69
2021/05/20 01:18:23;;;;;;;7.10;6.40;;;12.80;99.90;;;;;;5019281;28;20213;-67
2021/05/20 01:20:49;;;;;;;8.80;7.10;;;12.70;99.90;;;;;;5037056;28;20224;-70
2021/05/20 01:23:17;;;;;;;8.53;7.30;;;12.70;99.90;;;;;;5036956;28;20199;-69
2021/05/20 01:25:48;;;;;;;8.53;7.57;;;12.70;99.90;;;;;;5037002;28;20186;-68
2021/05/20 01:28:16;;;;;;;8.27;7.47;;;12.70;99.90;;;;;;5036904;28;20952;-69
2021/05/20 01:30:44;;;;;;;8.05;7.28;;;12.70;99.90;;;;;;5036785;28;20415;-68
2021/05/20 01:33:10;;;;;;;12.17;7.23;;;12.70;99.90;;;;;;5036677;28;20281;-68
2021/05/20 01:35:36;;;;;;;10.00;7.38;;;12.70;99.90;;;;;;5036712;28;20408;-67
2021/05/20 01:40:57;;;;;;;7.87;7.10;;;12.70;99.90;;;;;;5036740;28;20482;-69
2021/05/20 01:43:24;;;;;;;8.13;7.33;;;12.70;99.90;;;;;;5036502;28;20419;-69
2021/05/20 01:45:56;;;;;;;10.40;7.17;;;12.70;99.90;;;;;;5036573;28;20415;-68
2021/05/20 01:48:21;;;;;;;8.33;7.00;;;12.70;99.90;;;;;;5036571;28;20454;-69
2021/05/20 01:50:47;;;;;;;8.50;7.23;;;12.80;99.90;;;;;;5036603;28;20504;-68
2021/05/20 01:53:13;;;;;;;8.03;7.23;;;12.70;99.90;;;;;;5036391;28;20198;-70
2021/05/20 01:55:39;;;;;;;7.77;7.03;;;12.70;99.90;;;;;;5036446;28;20183;-68
2021/05/20 01:58:05;;;;;;;9.23;7.60;;;12.80;99.90;;;;;;5036254;28;20203;-68
2021/05/20 02:00:31;;;;;;;7.53;6.83;;;12.70;99.90;;;;;;5018503;28;20467;-69
2021/05/20 02:02:57;;;;;;;8.57;7.67;;;12.70;99.90;;;;;;5036332;28;20679;-69
2021/05/20 02:05:22;;;;;;;7.70;6.90;;;12.70;99.90;;;;;;5036122;28;20170;-68
2021/05/20 02:07:48;;;;;;;7.67;6.87;;;12.70;99.90;;;;;;5036150;28;20503;-70
2021/05/20 02:10:14;;;;;;;7.70;6.73;;;12.70;99.90;;;;;;5030625;28;20229;-69
2021/05/20 02:12:39;;;;;;;6.80;6.20;;;12.70;99.90;;;;;;5036007;28;20679;-68
2021/05/20 02:15:06;;;;;;;6.90;6.20;;;12.60;99.90;;;;;;5036092;28;20171;-69
2021/05/20 02:17:32;;;;;;;5.53;4.93;;;12.60;99.90;;;;;;5034852;28;20226;-67
2021/05/20 02:19:57;;;;;;;6.13;5.40;;;12.60;99.90;;;;;;5034639;28;20683;-68
2021/05/20 02:22:23;;;;;;;5.73;5.27;;;12.70;99.90;;;;;;5036311;28;20459;-68
2021/05/20 02:24:49;;;;;;;6.70;5.70;;;12.60;99.90;;;;;;5035959;28;20261;-68
2021/05/20 02:27:14;;;;;;;5.87;5.27;;;12.70;99.90;;;;;;5035305;28;20194;-68
2021/05/20 02:29:40;;;;;;;6.67;5.43;;;12.70;99.90;;;;;;5035842;28;20214;-69
2021/05/20 02:32:06;;;;;;;5.80;5.10;;;12.70;99.90;;;;;;5036087;28;20195;-69
2021/05/20 02:34:31;;;;;;;8.27;5.60;;;12.60;99.90;;;;;;5035831;28;20174;-69
2021/05/20 02:36:57;;;;;;;6.43;5.83;;;12.60;99.90;;;;;;5034492;28;20195;-69
2021/05/20 02:39:22;;;;;;;7.13;6.40;;;12.70;99.90;;;;;;5035610;28;20682;-68
2021/05/20 02:41:48;;;;;;;7.33;5.23;;;12.60;99.90;;;;;;5035775;28;20226;-69
2021/05/20 02:44:14;;;;;;;6.60;5.93;;;12.60;99.90;;;;;;5034110;28;20559;-71
2021/05/20 02:46:40;;;;;;;6.87;5.70;;;12.60;99.90;;;;;;5035788;28;20199;-69
2021/05/20 02:49:05;;;;;;;6.70;5.97;;;12.60;99.90;;;;;;5035408;28;20404;-69
2021/05/20 02:51:31;;;;;;;6.90;6.07;;;12.60;99.90;;;;;;5034194;28;20683;-67
2021/05/20 02:53:57;;;;;;;7.20;6.50;;;12.50;99.90;;;;;;5035398;28;20210;-69
2021/05/20 02:56:22;;;;;;;6.37;5.77;;;12.60;99.90;;;;;;5034019;28;20216;-69
2021/05/20 02:58:48;;;;;;;6.50;5.90;;;12.60;99.90;;;;;;5035456;28;20250;-69
2021/05/20 03:01:13;;;;;;;7.10;6.40;;;12.60;99.90;;;;;;5035280;28;20214;-67
2021/05/20 03:03:39;;;;;;;7.40;6.17;;;12.60;99.90;;;;;;5035221;28;20668;-69
2021/05/20 03:06:05;;;;;;;6.83;6.10;;;12.50;99.90;;;;;;5035286;28;20175;-68
2021/05/20 03:08:30;;;;;;;6.37;5.70;;;12.50;99.90;;;;;;5034818;28;20284;-71
2021/05/20 03:10:56;;;;;;;7.93;6.40;;;12.50;99.90;;;;;;5035207;28;20178;-68
2021/05/20 03:13:22;;;;;;;6.77;6.17;;;12.50;99.90;;;;;;5034903;28;20195;-67
2021/05/20 03:15:48;;;;;;;6.90;6.10;;;12.40;99.90;;;;;;5034998;28;20411;-68
2021/05/20 03:18:13;;;;;;;6.77;6.17;;;12.50;99.90;;;;;;5017026;28;20776;-70
2021/05/20 03:20:39;;;;;;;7.00;6.03;;;12.40;99.90;;;;;;5034789;28;20582;-67
2021/05/20 03:23:05;;;;;;;7.63;6.83;;;12.40;99.90;;;;;;5034717;28;20205;-67
2021/05/20 03:25:34;;;;;;;6.80;6.13;;;12.50;99.90;;;;;;5017023;28;20632;-68
2021/05/20 03:27:59;;;;;;;6.70;5.65;;;12.50;99.90;;;;;;5016925;28;20202;-69
2021/05/20 03:30:25;;;;;;;7.87;6.90;;;12.40;99.90;;;;;;5034614;28;20257;-67
2021/05/20 03:32:51;;;;;;;6.70;6.00;;;12.30;99.90;;;;;;5034549;28;20198;-68
2021/05/20 03:35:17;;;;;;;9.23;7.20;;;12.30;99.90;;;;;;5034600;28;20897;-68
2021/05/20 03:37:43;;;;;;;8.23;6.40;;;12.40;99.90;;;;;;5034332;28;20205;-68
2021/05/20 03:40:09;;;;;;;10.20;6.23;;;12.40;99.90;;;;;;5034405;28;20814;-70
2021/05/20 03:42:36;;;;;;;7.77;6.63;;;12.30;99.90;;;;;;5034757;28;20251;-69
2021/05/20 03:45:02;;;;;;;7.97;6.00;;;12.40;99.90;;;;;;5034374;28;20407;-67
2021/05/20 03:47:28;;;;;;;8.33;7.40;;;12.40;99.90;;;;;;5000285;28;20466;-70
2021/05/20 03:49:53;;;;;;;7.73;6.93;;;12.30;99.90;;;;;;5027954;28;20822;-69
2021/05/20 03:52:19;;;;;;;6.77;6.00;;;12.40;99.90;;;;;;5013364;28;20657;-69
2021/05/20 03:54:44;;;;;;;7.30;6.33;;;12.40;99.90;;;;;;5024988;28;20190;-68
2021/05/20 03:57:10;;;;;;;6.83;6.13;;;12.40;99.90;;;;;;5013289;28;20257;-69
2021/05/20 03:59:36;;;;;;;8.40;6.77;;;12.40;99.90;;;;;;5012912;28;20625;-70
2021/05/20 04:02:02;;;;;;;7.80;6.70;;;12.40;99.90;;;;;;5012901;28;20202;-67
2021/05/20 04:04:28;;;;;;;6.93;6.07;;;12.30;99.90;;;;;;5012766;28;20653;-71
2021/05/20 04:06:54;;;;;;;7.50;6.20;;;12.30;99.90;;;;;;5014231;28;20467;-67
2021/05/20 04:09:19;;;;;;;9.67;6.47;;;12.30;99.90;;;;;;5021097;28;20226;-70
2021/05/20 04:11:45;;;;;;;7.73;6.93;;;12.30;99.90;;;;;;5031967;28;20206;-67
2021/05/20 04:14:10;;;;;;;7.57;6.20;;;12.30;99.90;;;;;;5033849;28;20190;-69
2021/05/20 04:16:36;;;;;;;8.80;7.10;;;12.30;99.90;;;;;;5033947;28;20202;-68
2021/05/20 04:19:03;;;;;;;10.00;7.50;;;12.30;99.90;;;;;;5033810;28;20175;-68
2021/05/20 04:21:29;;;;;;;8.10;6.65;;;12.30;99.90;;;;;;5032466;28;20222;-70
2021/05/20 04:23:55;;;;;;;9.93;7.20;;;12.30;99.90;;;;;;5032522;28;20639;-69
2021/05/20 04:26:21;;;;;;;7.60;6.90;;;12.20;99.90;;;;;;5033792;28;20518;-69
2021/05/20 04:28:47;;;;;;;11.73;7.20;;;12.20;99.90;;;;;;5033672;28;20186;-70
2021/05/20 04:31:13;;;;;;;9.03;7.07;;;12.20;99.90;;;;;;5033831;28;20228;-68
2021/05/20 04:33:39;;;;;;;8.50;6.60;;;12.20;99.90;;;;;;5033648;28;20403;-68
2021/05/20 04:36:05;;;;;;;9.15;7.55;;;12.20;99.90;;;;;;5033669;28;20837;-70
2021/05/20 04:38:31;;;;;;;10.80;7.70;;;12.10;99.90;;;;;;5033458;28;20213;-68
2021/05/20 04:40:56;;;;;;;8.60;6.80;;;12.20;99.90;;;;;;5033476;28;20244;-68
2021/05/20 04:43:22;;;;;;;8.10;6.87;;;12.10;99.90;;;;;;5032142;28;20194;-69
2021/05/20 04:45:47;;;;;;;8.83;7.10;;;12.10;99.90;;;;;;5033621;28;20177;-68
2021/05/20 04:48:13;;;;;;;9.47;7.60;;;12.20;99.90;;;;;;5033462;28;20210;-69
2021/05/20 04:50:40;;;;;;;9.20;7.37;;;12.20;99.90;;;;;;5037485;28;20177;-68
2021/05/20 04:53:05;;;;;;;10.85;7.15;;;12.20;99.90;;;;;;5035456;28;20202;-69
2021/05/20 04:55:31;;;;;;;7.60;6.70;;;12.20;99.90;;;;;;5037417;28;20539;-69
2021/05/20 04:57:57;;;;;;;9.37;6.50;;;12.20;99.90;;;;;;5037407;28;20280;-69
2021/05/20 05:00:23;;;;;;;8.43;6.87;;;12.10;99.90;;;;;;5037309;28;20209;-69
2021/05/20 05:02:48;;;;;;;9.70;6.80;;;12.20;99.90;;;;;;5036044;28;20236;-68
2021/05/20 05:05:14;;;;;;;8.90;8.00;;;12.20;99.90;;;;;;5036049;28;20412;-69
2021/05/20 05:07:39;;;;;;;11.33;6.33;;;12.20;99.90;;;;;;5036155;28;20280;-68
2021/05/20 05:10:06;;;;;;;7.77;6.73;;;12.20;99.90;;;;;;5035984;28;20264;-69
2021/05/20 05:12:32;;;;;;;7.27;6.30;;;12.20;99.90;;;;;;5036716;28;20197;-70
2021/05/20 05:14:57;;;;;;;6.90;6.17;;;12.20;99.90;;;;;;5037151;28;20411;-70
2021/05/20 05:17:24;;;;;;;6.63;6.03;;;12.20;99.90;;;;;;5037502;28;20232;-68
2021/05/20 05:19:50;;;;;;;6.13;5.20;;;12.20;99.90;;;;;;5036687;28;20175;-68
2021/05/20 05:22:16;;;;;;;8.10;6.30;;;12.20;99.90;;;;;;5037442;28;20194;-69
2021/05/20 05:24:41;;;;;;;8.30;7.10;;;12.20;99.90;;;;;;5036419;28;20423;-70
2021/05/20 05:27:07;;;;;;;8.77;6.53;;;12.20;99.90;;;;;;5037017;28;20497;-69
2021/05/20 05:29:33;;;;;;;8.07;6.27;;;12.50;99.90;;;;;;5036794;28;20548;-69
2021/05/20 05:32:03;;;;;;;9.00;6.88;;;12.60;99.90;;;;;;5035360;28;20447;-69
2021/05/20 05:34:28;;;;;;;8.73;7.07;;;12.90;99.90;;;;;;5034762;28;20187;-68
2021/05/20 05:36:54;;;;;;;8.97;7.30;;;12.70;99.90;;;;;;5036136;28;20218;-69
2021/05/20 05:39:20;;;;;;;8.23;7.23;;;12.70;99.90;;;;;;5034938;28;20186;-69
2021/05/20 05:41:45;;;;;;;9.87;7.40;;;12.80;99.90;;;;;;5032830;28;20797;-67
2021/05/20 05:44:12;;;;;;;10.00;8.00;;;13.20;99.90;;;;;;5031800;28;20214;-68
2021/05/20 05:46:43;;;;;;;11.13;8.38;;;13.20;99.90;;;;;;5013494;28;20230;-67
2021/05/20 05:49:17;;;;;;;8.25;6.60;;;13.20;99.90;;;;;;5032490;28;20580;-70
2021/05/20 05:51:51;;;;;;;9.07;8.13;;;13.20;99.90;;;;;;5031148;28;20201;-69
2021/05/20 05:54:16;;;;;;;10.73;7.93;;;13.30;99.90;;;;;;5033689;28;20283;-71
2021/05/20 05:56:42;;;;;;;8.80;7.90;;;13.30;99.90;;;;;;5031929;28;20463;-70
2021/05/20 05:59:08;;;;;;;7.80;7.00;;;13.30;99.90;;;;;;5033505;28;20186;-69
2021/05/20 06:01:34;;;;;;;8.73;7.33;;;13.30;99.90;;;;;;5032910;28;20222;-70
2021/05/20 06:04:00;;;;;;;10.50;7.90;;;13.20;99.90;;;;;;5033404;28;20188;-69
2021/05/20 06:06:26;;;;;;;8.80;7.90;;;13.20;99.90;;;;;;5033786;28;20974;-70
2021/05/20 06:08:52;;;;;;;12.70;8.97;;;13.30;99.90;;;;;;5031107;28;20238;-68
2021/05/20 06:11:17;;;;;;;9.93;7.40;;;13.40;99.90;;;;;;5035777;28;20206;-70
2021/05/20 06:13:43;;;;;;;8.80;7.90;;;13.90;99.90;;;;;;5034637;28;20303;-69
2021/05/20 06:16:09;;;;;;;8.97;7.00;;;13.80;99.90;;;;;;5032089;28;20182;-69
2021/05/20 06:18:34;;;;;;;8.67;6.90;;;13.70;99.90;;;;;;5035483;28;20187;-70
2021/05/20 06:21:00;;;;;;;11.80;8.37;;;13.60;99.90;;;;;;5027207;28;20222;-68
2021/05/20 06:23:25;;;;;;;9.87;7.50;;;13.90;99.90;;;;;;5033053;28;20206;-70
2021/05/20 06:25:51;;;;;;;8.43;7.20;;;13.90;99.90;;;;;;5033616;28;20190;-69
2021/05/20 06:28:17;;;;;;;8.80;7.13;;;14.00;99.90;;;;;;5033064;28;20229;-70
2021/05/20 06:30:42;;;;;;;9.73;7.67;;;13.90;99.90;;;;;;5032799;28;20179;-69
2021/05/20 06:33:08;;;;;;;10.57;8.67;;;14.00;99.90;;;;;;5033019;28;20285;-69
2021/05/20 06:35:33;;;;;;;10.30;8.83;;;14.00;99.90;;;;;;5033121;28;20183;-69
2021/05/20 06:37:59;;;;;;;8.30;7.00;;;13.70;99.90;;;;;;5032066;28;20209;-67
2021/05/20 06:40:25;;;;;;;10.87;8.10;;;14.20;99.90;;;;;;5028549;28;20268;-70
2021/05/20 06:42:50;;;;;;;10.10;9.00;;;13.90;99.90;;;;;;5032477;28;20289;-70
2021/05/20 06:45:16;;;;;;;11.47;9.40;;;13.70;99.90;;;;;;5034213;28;20920;-71
2021/05/20 06:47:42;;;;;;;10.60;8.07;;;13.70;99.90;;;;;;5035230;28;20260;-69
2021/05/20 06:50:08;;;;;;;8.20;7.00;;;13.90;99.90;;;;;;5033761;28;20191;-71
2021/05/20 06:52:33;;;;;;;10.30;8.33;;;14.10;99.90;;;;;;5033812;28;20226;-68
2021/05/20 06:54:59;;;;;;;9.80;8.43;;;13.90;99.90;;;;;;5030160;28;20866;-71
2021/05/20 06:57:30;;;;;;;9.57;8.60;;;13.60;99.90;;;;;;5027879;28;20256;-70
2021/05/20 06:59:56;;;;;;;12.03;7.70;;;13.60;99.90;;;;;;5030248;28;20271;-68
2021/05/20 07:02:22;;;;;;;10.13;8.45;;;13.30;99.90;;;;;;5032948;28;20535;-68
2021/05/20 07:04:48;;;;;;;9.50;7.73;;;13.50;99.90;;;;;;5034014;28;20280;-69
2021/05/20 07:07:14;;;;;;;11.03;8.17;;;13.80;99.90;;;;;;5032203;28;20701;-68
2021/05/20 07:09:40;;;;;;;12.20;8.67;;;13.80;99.90;;;;;;5065936;28;20238;-67
2021/05/20 07:12:06;;;;;;;9.60;8.43;;;13.90;99.90;;;;;;5023535;28;20278;-68
2021/05/20 07:14:32;;;;;;;10.30;7.20;;;13.50;99.90;;;;;;5024530;28;20430;-70
2021/05/20 07:16:59;;;;;;;9.60;8.30;;;13.50;99.90;;;;;;5031072;28;20521;-67
2021/05/20 07:19:24;;;;;;;11.17;8.10;;;13.60;99.90;;;;;;5027965;28;20489;-68
2021/05/20 07:21:50;;;;;;;11.27;8.50;;;13.90;99.90;;;;;;5031967;28;20479;-68
2021/05/20 07:24:17;;;;;;;10.13;8.23;;;14.00;99.90;;;;;;5033496;28;20266;-71
2021/05/20 07:26:43;;;;;;;10.83;8.47;;;13.80;99.90;;;;;;5034595;28;20797;-69
2021/05/20 07:29:09;;;;;;;10.10;7.73;;;13.40;99.90;;;;;;5032996;28;20419;-68
2021/05/20 07:31:34;;;;;;;9.87;7.63;;;13.30;99.90;;;;;;5032889;28;20946;-71
2021/05/20 07:34:00;;;;;;;9.10;7.80;;;13.30;99.90;;;;;;5033932;28;20417;-68
2021/05/20 07:36:26;;;;;;;9.83;7.70;;;13.50;99.90;;;;;;5034049;28;20639;-68
2021/05/20 07:38:52;;;;;;;11.17;7.40;;;13.40;99.90;;;;;;5033863;28;20182;-70
2021/05/20 07:41:18;;;;;;;12.37;8.80;;;13.30;99.90;;;;;;5030512;28;20222;-67
2021/05/20 07:43:44;;;;;;;10.47;8.43;;;12.90;99.90;;;;;;5032034;28;20191;-70
2021/05/20 07:46:11;;;;;;;12.43;8.30;;;12.80;99.90;;;;;;5032817;28;20437;-68
2021/05/20 07:48:37;;;;;;;10.20;8.53;;;12.70;99.90;;;;;;5033926;28;20412;-69
2021/05/20 07:51:07;;;;;;;11.40;9.20;;;12.80;99.90;;;;;;5034287;28;20439;-68
2021/05/20 07:53:34;;;;;;;13.90;8.60;;;12.90;99.90;;;;;;5066179;28;20941;-68
2021/05/20 07:56:00;;;;;;;9.03;8.10;;;12.90;99.90;;;;;;5033524;28;20428;-69
2021/05/20 07:58:26;;;;;;;9.00;8.00;;;13.10;99.90;;;;;;5032634;28;20432;-68
2021/05/20 08:00:54;;;;;;;11.17;8.97;;;12.90;99.90;;;;;;5032786;28;20532;-69
2021/05/20 08:06:11;;;;;;;11.33;9.00;;;12.60;99.90;;;;;;5032921;28;20507;-69
2021/05/20 08:08:59;;;;;;;13.13;9.20;;;12.60;99.90;;;;;;5030933;28;20420;-68
2021/05/20 08:11:23;;;;;;;10.97;8.27;;;12.50;99.90;;;;;;5026417;28;20543;-69
2021/05/20 08:13:49;;;;;;;12.00;9.33;;;12.80;99.90;;;;;;5024996;28;20887;-69
2021/05/20 08:16:14;;;;;;;12.17;9.33;;;12.70;99.90;;;;;;5030335;28;20182;-68
2021/05/20 08:18:41;;;;;;;11.27;8.90;;;12.60;99.90;;;;;;5031150;28;20420;-68
2021/05/20 08:21:07;;;;;;;10.37;9.17;;;12.60;99.90;;;;;;5030806;28;20222;-68
2021/05/20 08:23:34;;;;;;;12.57;10.30;;;12.60;99.90;;;;;;5031943;28;20486;-68
2021/05/20 08:26:02;;;;;;;13.50;8.83;;;12.70;99.90;;;;;;5032474;28;20526;-69
2021/05/20 08:28:28;;;;;;;11.67;9.43;;;12.70;99.90;;;;;;5031976;28;20470;-67
2021/05/20 08:30:54;;;;;;;10.40;9.33;;;12.60;99.90;;;;;;5031047;28;20431;-70
2021/05/20 08:33:20;;;;;;;9.80;8.30;;;12.70;99.90;;;;;;5053570;28;21026;-67
2021/05/20 08:35:47;;;;;;;11.37;9.30;;;12.90;99.90;;;;;;5030602;28;20522;-68
2021/05/20 08:38:14;;;;;;;10.93;9.70;;;12.90;99.90;;;;;;5030032;28;20730;-70
2021/05/20 08:40:41;;;;;;;13.20;9.57;;;12.80;99.90;;;;;;5028476;28;20507;-68
2021/05/20 08:43:07;;;;;;;13.10;10.83;;;12.80;99.90;;;;;;5027537;28;20443;-68
2021/05/20 08:45:33;;;;;;;17.13;9.67;;;12.70;99.90;;;;;;5030262;28;20925;-69
2021/05/20 08:48:00;;;;;;;11.67;9.47;;;12.70;99.90;;;;;;5022336;28;20455;-68
2021/05/20 08:50:29;;;;;;;13.20;10.13;;;12.80;99.90;;;;;;5024034;28;20439;-71
2021/05/20 08:52:55;;;;;;;13.43;10.43;;;12.80;99.90;;;;;;5030949;28;20988;-68
2021/05/20 08:55:34;;;;;;;13.37;9.90;;;12.80;99.90;;;;;;5026744;28;20407;-68
2021/05/20 08:58:01;;;;;;;12.30;10.33;;;12.90;99.90;;;;;;5025244;28;20461;-68
2021/05/20 09:00:29;;;;;;;11.77;9.40;;;12.90;99.90;;;;;;5027134;28;20478;-68
2021/05/20 09:03:06;;;;;;;11.60;9.20;;;12.90;99.90;;;;;;5026866;28;20509;-67
2021/05/20 09:05:31;;;;;;;12.40;10.10;;;13.10;99.90;;;;;;5028169;28;20538;-70
2021/05/20 09:07:57;;;;;;;10.40;9.30;;;13.20;99.90;;;;;;5028647;28;20546;-71
2021/05/20 09:10:27;;;;;;;10.50;9.40;;;13.20;99.90;;;;;;5015871;28;20234;-72
2021/05/20 09:12:59;;;;;;;13.00;9.50;;;13.10;99.90;;;;;;5025362;28;20333;-70
2021/05/20 09:15:29;;;;;;;11.00;8.80;;;13.00;99.90;;;;;;4987477;28;20433;-71
2021/05/20 09:18:07;;;;;;;9.60;8.60;;;13.00;99.90;;;;;;5001524;28;20449;-68
2021/05/20 09:20:34;;;;;;;13.30;9.47;;;13.10;99.90;;;;;;5010832;28;20972;-70
2021/05/20 09:23:08;;;;;;;9.93;8.93;;;13.00;99.90;;;;;;5026952;28;20451;-68
2021/05/20 09:25:35;;;;;;;9.10;8.30;;;13.00;99.90;;;;;;5012560;28;20408;-69
2021/05/20 09:28:02;;;;;;;9.83;8.50;;;13.10;99.90;;;;;;5013804;28;20534;-69
2021/05/20 09:30:32;;;;;;;13.13;9.43;;;13.10;99.90;;;;;;4992884;28;20938;-70
2021/05/20 09:33:00;;;;;;;10.87;8.67;;;13.10;99.90;;;;;;5010698;28;20884;-68
2021/05/20 09:35:32;;;;;;;12.53;10.63;;;13.10;99.90;;;;;;4994218;28;20454;-69
2021/05/20 09:38:06;;;;;;;11.63;10.33;;;13.10;99.90;;;;;;5015109;28;20447;-69
2021/05/20 09:40:38;;;;;;;18.13;10.50;;;13.00;99.90;;;;;;4996710;28;20464;-68
2021/05/20 09:43:21;;;;;;;10.87;9.30;;;13.10;99.90;;;;;;5012420;28;21014;-68
2021/05/20 09:45:50;;;;;;;12.50;10.80;;;13.10;99.90;;;;;;5013445;28;20503;-69
2021/05/20 09:48:16;;;;;;;11.70;10.50;;;13.20;99.90;;;;;;5014497;28;20444;-68
2021/05/20 09:50:45;;;;;;;12.73;10.57;;;13.20;99.90;;;;;;5014657;28;20491;-71
2021/05/20 09:53:15;;;;;;;10.87;9.60;;;13.20;99.90;;;;;;5014353;28;20466;-68
2021/05/20 09:55:55;;;;;;;11.57;9.77;;;13.20;99.90;;;;;;5009166;28;20944;-69
2021/05/20 09:58:26;;;;;;;14.43;11.73;;;13.00;99.90;;;;;;5014449;28;20451;-69
2021/05/20 10:00:54;;;;;;;16.20;12.30;;;13.10;99.90;;;;;;5015625;28;20459;-71
2021/05/20 10:03:21;;;;;;;21.43;14.97;;;13.10;99.90;;;;;;5018488;28;20527;-68
2021/05/20 10:05:53;;;;;;;17.70;14.30;;;13.20;99.90;;;;;;4991883;28;20515;-69
2021/05/20 10:08:21;;;;;;;16.23;12.83;;;13.20;99.90;;;;;;5012490;28;20445;-69
2021/05/20 10:10:51;;;;;;;13.07;10.67;;;13.20;99.90;;;;;;5014015;28;20992;-68
2021/05/20 10:13:19;;;;;;;13.50;11.60;;;13.20;99.90;;;;;;5014089;28;20432;-69
2021/05/20 10:15:45;;;;;;;22.70;16.67;;;13.30;99.90;;;;;;5006160;28;20432;-68
2021/05/20 10:18:17;;;;;;;18.17;14.93;;;13.20;99.90;;;;;;5006672;28;20467;-67
2021/05/20 10:20:45;;;;;;;33.60;23.70;;;13.20;99.90;;;;;;5009547;28;20480;-67
2021/05/20 10:23:19;;;;;;;17.27;15.47;;;13.30;99.90;;;;;;5007708;28;20487;-68
2021/05/20 10:25:46;;;;;;;17.67;14.90;;;13.20;99.90;;;;;;5010505;28;20915;-70
2021/05/20 10:28:14;;;;;;;16.07;13.37;;;13.20;99.90;;;;;;5008881;28;20539;-68
2021/05/20 10:30:42;;;;;;;19.47;16.47;;;13.30;99.90;;;;;;5040405;28;20423;-69
2021/05/20 10:33:08;;;;;;;15.47;13.90;;;13.30;99.90;;;;;;5004747;28;20483;-69
2021/05/20 10:35:45;;;;;;;17.50;14.30;;;13.20;99.90;;;;;;5007478;28;20511;-68
2021/05/20 10:38:33;;;;;;;20.40;15.30;;;13.10;99.90;;;;;;5009727;28;21069;-68
2021/05/20 10:41:18;;;;;;;19.30;14.83;;;13.10;99.90;;;;;;5005996;28;20488;-70
2021/05/20 10:44:08;;;;;;;18.00;14.57;;;13.20;99.90;;;;;;5011292;28;20433;-68
2021/05/20 10:47:03;;;;;;;19.43;14.50;;;13.00;99.90;;;;;;4999592;28;20800;-68
2021/05/20 10:49:50;;;;;;;17.67;14.53;;;13.00;99.90;;;;;;5008438;28;20421;-70
2021/05/20 10:52:38;;;;;;;20.83;15.70;;;13.10;99.90;;;;;;5012827;28;20502;-68
2021/05/20 10:55:10;;;;;;;28.27;21.63;;;13.10;99.90;;;;;;5011281;28;20984;-69
2021/05/20 10:57:48;;;;;;;21.37;17.60;;;13.20;99.90;;;;;;5012155;28;20464;-68
2021/05/20 11:00:33;;;;;;;21.97;16.70;;;13.20;99.90;;;;;;5010512;28;20510;-68
2021/05/20 11:02:59;;;;;;;24.90;19.17;;;13.20;99.90;;;;;;5010820;28;20456;-67
2021/05/20 11:05:44;;;;;;;22.07;17.43;;;13.30;99.90;;;;;;5038697;28;20467;-70
2021/05/20 11:08:09;;;;;;;20.40;15.30;;;13.40;99.90;;;;;;5023795;28;20461;-68
2021/05/20 11:10:36;;;;;;;19.40;16.00;;;13.40;99.90;;;;;;5019942;28;20542;-67
2021/05/20 11:13:03;;;;;;;19.43;15.60;;;13.20;99.90;;;;;;5009139;28;20226;-68
2021/05/20 11:15:28;;;;;;;24.43;17.50;;;13.30;99.90;;;;;;5010446;28;20449;-69
2021/05/20 11:17:54;;;;;;;19.87;15.80;;;13.20;99.90;;;;;;5007629;28;20475;-70
2021/05/20 11:20:37;;;;;;;22.30;16.50;;;13.30;99.90;;;;;;4993212;28;20222;-70
2021/05/20 11:23:17;;;;;;;21.40;16.70;;;13.20;99.90;;;;;;5002203;28;20620;-67
2021/05/20 11:25:43;;;;;;;25.27;18.20;;;13.10;99.90;;;;;;5004806;28;20929;-68
2021/05/20 11:28:09;;;;;;;19.57;15.77;;;13.40;99.90;;;;;;5007918;28;20452;-68
2021/05/20 11:30:35;;;;;;;19.53;15.83;;;13.30;99.90;;;;;;5011185;28;20499;-68
2021/05/20 11:33:02;;;;;;;19.80;16.77;;;13.30;99.90;;;;;;4987074;28;20522;-70
2021/05/20 11:36:28;;;;;;;20.47;16.07;;;13.40;99.90;;;;;;5009314;28;20175;-69
2021/05/20 11:38:24;;;;;;;20.50;16.73;;;13.40;99.90;;;;;;5003593;28;21019;-68
2021/05/20 11:40:49;;;;;;;20.57;15.23;;;13.40;99.90;;;;;;5009450;28;21068;-68
2021/05/20 11:43:15;;;;;;;20.80;15.73;;;13.40;99.90;;;;;;5012592;28;20531;-70
2021/05/20 11:45:40;;;;;;;18.60;15.17;;;13.50;99.90;;;;;;5010170;28;20191;-69
2021/05/20 11:48:06;;;;;;;20.93;16.40;;;13.50;99.90;;;;;;4997207;28;20226;-67
2021/05/20 11:50:33;;;;;;;18.50;15.50;;;13.50;99.90;;;;;;4995422;28;20694;-68
2021/05/20 11:53:11;;;;;;;19.03;15.20;;;13.50;99.90;;;;;;4999957;28;20985;-68
2021/05/20 11:55:37;;;;;;;19.73;15.53;;;13.50;99.90;;;;;;5010997;28;20439;-69
2021/05/20 11:58:03;;;;;;;20.83;16.67;;;13.60;99.90;;;;;;5011404;28;20428;-67
2021/05/20 12:00:30;;;;;;;19.93;16.03;;;13.70;99.90;;;;;;5012203;28;20511;-69
2021/05/20 12:02:57;;;;;;;18.73;16.17;;;13.70;99.90;;;;;;5011875;28;20462;-69
2021/05/20 12:05:24;;;;;;;25.93;17.70;;;13.70;99.90;;;;;;5009387;28;20431;-70
2021/05/20 12:07:50;;;;;;;25.17;16.70;;;13.80;99.90;;;;;;5018155;28;20467;-70
2021/05/20 12:10:23;;;;;;;20.60;16.30;;;13.80;99.90;;;;;;5027462;28;20455;-68
2021/05/20 12:12:56;;;;;;;18.47;15.50;;;13.80;99.90;;;;;;5028310;28;20210;-70
2021/05/20 12:15:25;;;;;;;17.67;14.53;;;13.90;99.90;;;;;;5023791;28;20427;-68
2021/05/20 12:17:54;;;;;;;19.73;16.70;;;13.80;99.90;;;;;;5060604;28;20494;-68
2021/05/20 12:20:20;;;;;;;17.23;14.53;;;14.00;99.90;;;;;;5026040;28;20507;-70
2021/05/20 12:22:45;;;;;;;17.43;14.47;;;13.90;99.90;;;;;;5023712;28;20486;-69
2021/05/20 12:25:20;;;;;;;18.47;14.67;;;13.90;99.90;;;;;;5027255;28;20812;-70
2021/05/20 12:27:56;;;;;;;17.00;14.00;;;14.00;99.90;;;;;;5025872;28;20206;-69
2021/05/20 12:30:28;;;;;;;19.07;14.60;;;14.10;99.90;;;;;;5026977;28;20432;-70
2021/05/20 12:33:07;;;;;;;18.37;15.57;;;14.10;99.90;;;;;;5027073;28;20443;-69
2021/05/20 12:35:34;;;;;;;17.23;15.00;;;14.10;99.90;;;;;;5028087;28;20806;-69
2021/05/20 12:38:09;;;;;;;17.77;15.03;;;14.10;99.90;;;;;;5026482;28;20451;-68
2021/05/20 12:40:46;;;;;;;17.67;14.50;;;14.00;99.90;;;;;;5027339;28;20502;-69
2021/05/20 12:43:13;;;;;;;17.93;15.03;;;14.00;99.90;;;;;;5029052;28;20976;-69
2021/05/20 12:46:02;;;;;;;19.20;16.03;;;14.00;99.90;;;;;;5030343;28;20435;-72
2021/05/20 12:48:35;;;;;;;44.93;25.90;;;14.10;99.90;;;;;;5022540;28;20514;-70